createdAt,value
2022-09-16T12:56:49.727Z,53.14
2022-09-16T20:53:55.523Z,84.12
2022-09-16T20:54:56.392Z,84.33
2022-09-16T20:55:56.357Z,84.42
2022-09-16T20:56:56.356Z,84.42
2022-09-16T20:57:56.404Z,84.74
2022-09-16T20:58:56.294Z,84.74
2022-09-16T20:59:56.305Z,84.94
2022-09-16T21:00:56.291Z,85.45
2022-09-16T21:01:56.343Z,85.79
2022-09-16T21:02:56.248Z,86.41
2022-09-16T21:04:02.985Z,86.71
2022-09-16T21:04:56.273Z,87.43
2022-09-16T21:05:56.204Z,87.53
2022-09-16T21:06:58.534Z,87.84
2022-09-16T21:10:35.842Z,88.29
2022-09-16T21:14:14.604Z,90.64
2022-09-16T21:15:15.366Z,91.76
2022-09-16T21:16:15.373Z,91.19
2022-09-16T21:17:15.418Z,92.11
2022-09-16T21:18:15.617Z,92.21
2022-09-16T21:19:15.505Z,92.83
2022-09-16T21:20:15.341Z,93.03
2022-09-16T21:21:15.369Z,92.83
2022-09-16T21:22:15.418Z,93.03
2022-09-16T21:23:15.342Z,92.93
2022-09-16T21:24:15.365Z,93.24
2022-09-16T21:25:15.353Z,93.99
2022-09-16T21:26:15.314Z,93.89
2022-09-16T21:27:15.314Z,94.60
2022-09-16T21:29:35.991Z,95.32
2022-09-16T21:38:01.569Z,95.43
2022-09-16T21:39:02.526Z,96.34
2022-09-16T21:40:02.587Z,95.98
2022-09-16T21:41:02.477Z,96.45
2022-09-16T21:42:02.478Z,96.39
2022-09-16T21:43:02.494Z,96.49
2022-09-16T21:44:02.430Z,97.31
2022-09-16T21:45:02.455Z,97.62
2022-09-16T21:46:02.459Z,97.72
2022-09-16T21:47:02.411Z,98.13
2022-09-16T21:48:02.389Z,97.82
2022-09-16T21:49:02.403Z,98.44
2022-09-16T21:50:02.396Z,98.95
2022-09-16T21:51:02.374Z,99.26
2022-09-16T21:52:02.358Z,99.36
2022-09-16T21:53:02.326Z,99.41
2022-09-16T21:54:02.294Z,99.61
2022-09-16T21:55:02.458Z,99.91
2022-09-16T21:56:02.347Z,99.82
2022-09-16T21:57:02.411Z,99.71
2022-09-16T21:58:02.356Z,99.99
2022-09-16T21:59:02.283Z,99.99
2022-09-16T22:00:02.268Z,99.99
2022-09-16T22:01:02.363Z,99.99
2022-09-16T22:02:03.875Z,99.99
2022-09-16T22:03:02.275Z,99.99
2022-09-16T22:04:02.216Z,99.99
2022-09-16T22:05:02.240Z,99.99
2022-09-16T22:06:02.215Z,99.99
2022-09-16T22:07:02.188Z,99.99
2022-09-16T22:08:02.176Z,99.99
2022-09-16T22:09:02.433Z,99.99
2022-09-16T22:10:02.176Z,99.99
2022-09-16T22:11:02.164Z,99.99
2022-09-16T22:12:02.114Z,99.99
2022-09-16T22:13:02.152Z,99.99
2022-09-16T22:14:02.113Z,99.99
2022-09-16T22:15:02.187Z,99.99
2022-09-16T22:16:02.142Z,99.99
2022-09-16T22:17:02.864Z,99.99
2022-09-16T22:18:02.064Z,99.99
2022-09-16T22:19:02.121Z,99.99
2022-09-16T22:20:02.032Z,99.99
2022-09-16T22:21:02.064Z,99.99
2022-09-16T22:22:02.020Z,99.99
2022-09-16T22:23:02.032Z,99.99
2022-09-16T22:24:01.996Z,99.99
2022-09-16T22:25:02.010Z,99.99
2022-09-16T22:26:02.016Z,99.99
2022-09-16T22:27:02.433Z,99.99
2022-09-16T22:28:01.956Z,99.99
2022-09-16T22:29:01.990Z,99.99
2022-09-16T22:30:01.960Z,99.99
2022-09-16T22:31:02.148Z,99.99
2022-09-16T22:32:01.932Z,99.99
2022-09-16T22:33:01.926Z,99.99
2022-09-16T22:34:01.891Z,99.99
2022-09-16T22:35:01.908Z,99.99
2022-09-16T22:36:01.865Z,99.99
2022-09-16T22:37:01.928Z,99.99
2022-09-16T22:38:01.873Z,99.99
2022-09-16T22:39:01.850Z,99.99
2022-09-16T22:40:01.902Z,99.99
2022-09-16T22:41:02.021Z,99.99
2022-09-16T22:42:01.832Z,99.99
2022-09-16T22:43:01.836Z,99.99
2022-09-16T22:44:01.802Z,99.99
2022-09-16T22:45:01.777Z,99.99
2022-09-16T22:46:01.765Z,99.99
2022-09-16T22:47:01.880Z,99.99
2022-09-16T22:48:01.772Z,99.99
2022-09-16T22:49:01.761Z,99.99
2022-09-16T22:50:01.725Z,99.99
2022-09-16T22:51:01.717Z,99.99
2022-09-16T22:52:01.756Z,99.99
2022-09-16T22:53:01.739Z,99.99
2022-09-16T22:54:01.697Z,99.99
2022-09-16T22:55:01.704Z,99.99
2022-09-16T22:56:01.660Z,99.99
2022-09-16T22:57:01.825Z,99.99
2022-09-16T22:58:01.654Z,99.99
2022-09-16T22:59:01.653Z,99.99
2022-09-16T23:00:01.683Z,99.99
2022-09-16T23:01:01.613Z,99.99
2022-09-16T23:02:01.655Z,99.99
2022-09-16T23:03:01.618Z,99.96
2022-09-16T23:04:01.879Z,99.99
2022-09-16T23:05:01.582Z,99.99
2022-09-16T23:06:01.623Z,99.80
2022-09-16T23:07:01.553Z,99.91
2022-09-16T23:08:01.539Z,99.80
2022-09-16T23:09:01.538Z,99.99
2022-09-16T23:10:01.509Z,99.99
2022-09-16T23:11:01.565Z,99.99
2022-09-16T23:12:01.514Z,99.99
2022-09-16T23:13:01.570Z,99.99
2022-09-16T23:14:01.538Z,99.99
2022-09-16T23:15:01.473Z,99.99
2022-09-16T23:16:01.536Z,99.99
2022-09-16T23:17:01.474Z,99.99
2022-09-16T23:18:01.461Z,99.99
2022-09-16T23:19:01.497Z,99.99
2022-09-16T23:20:01.422Z,99.99
2022-09-16T23:26:38.401Z,99.99
2022-09-16T23:27:21.378Z,99.91
2022-09-16T23:28:21.318Z,99.70
2022-09-16T23:29:21.345Z,99.91
2022-09-16T23:30:21.298Z,99.80
2022-09-16T23:31:21.394Z,99.99
2022-09-16T23:32:21.254Z,99.99
2022-09-16T23:33:21.250Z,99.91
2022-09-16T23:34:21.258Z,99.91
2022-09-16T23:35:21.222Z,99.99
2022-09-16T23:36:21.266Z,99.99
2022-09-16T23:37:21.906Z,99.99
2022-09-16T23:38:21.207Z,99.99
2022-09-16T23:39:21.238Z,99.99
2022-09-16T23:40:21.451Z,99.99
2022-09-16T23:41:21.158Z,99.99
2022-09-16T23:42:21.155Z,99.99
2022-09-16T23:43:21.130Z,99.99
2022-09-16T23:44:21.188Z,99.99
2022-09-16T23:45:21.101Z,99.99
2022-09-16T23:46:21.210Z,99.99
2022-09-16T23:47:21.150Z,99.99
2022-09-16T23:48:21.101Z,99.99
2022-09-16T23:49:21.073Z,99.99
2022-09-16T23:50:21.081Z,99.99
2022-09-16T23:51:24.597Z,99.99
2022-09-16T23:52:21.117Z,99.99
2022-09-16T23:53:21.125Z,99.99
2022-09-16T23:54:21.055Z,99.99
2022-09-16T23:55:21.019Z,99.99
2022-09-16T23:56:21.085Z,99.99
2022-09-16T23:57:20.993Z,99.99
